Terminal Aerodrome Forecast
Issued by NWS

Home | Current Version | Previous Version | Text Only | Print | Product List | Glossary On
Versions: 1 2 3 4 5 6 7 8 9 10 11 12 13 14
000
FTUS43 KJKL 141200 AAA
TAFSME
TAF AMD
KSME 141254Z 1413/1512 19008KT P6SM SCT040 BKN100
      TEMPO 1413/1415 2SM -TSRA BR BKN020CB OVC040
     FM141700 24009KT 4SM SHRA BR VCTS BKN035CB BKN120
     FM150300 25005KT 6SM -SHRA BR BKN025 OVC040
     FM150900 00000KT 4SM BR OVC007=

USA.gov is the U.S. government's official web portal to all federal, state and local government web resources and services.